Time;durP1;ratioP1;P1;durP2;ratioP2;P2;SDS_P1;SDS_P2;PMS_P1;PMS_P2;Temp;Humidity;BMP_temperature;BMP_pressure;BME280_temperature;BME280_humidity;BME280_pressure;Samples;Min_cycle;Max_cycle;Signal;HPM_P1;HPM_P2
2023/10/10 00:01:17;;;;;;;3.00;1.30;;;;;;;4.56;85.49;100439.73;88437;282;135668;-75
2023/10/10 00:03:20;;;;;;;2.80;1.80;;;;;;;4.53;85.48;100438.25;88552;275;23990;-76
2023/10/10 00:05:33;;;;;;;3.00;1.60;;;;;;;4.51;85.63;100437.89;88534;282;135258;-74
2023/10/10 00:07:35;;;;;;;5.30;1.70;;;;;;;4.51;85.74;100438.44;88524;281;22540;-72
2023/10/10 00:09:38;;;;;;;2.60;1.30;;;;;;;4.49;86.10;100436.27;88448;275;137209;-71
2023/10/10 00:11:41;;;;;;;1.40;0.80;;;;;;;4.50;85.97;100436.96;88622;278;24208;-72
2023/10/10 00:13:43;;;;;;;2.40;1.40;;;;;;;4.58;85.66;100434.95;88376;279;136638;-74
2023/10/10 00:15:50;;;;;;;3.30;1.40;;;;;;;4.64;85.50;100431.21;88385;283;24863;-70
2023/10/10 00:17:58;;;;;;;2.30;1.60;;;;;;;4.70;85.23;100431.50;88333;282;136069;-70
2023/10/10 00:20:24;;;;;;;4.70;1.50;;;;;;;4.71;85.09;100427.02;88443;283;22898;-70
2023/10/10 00:22:35;;;;;;;3.00;1.70;;;;;;;4.71;85.04;100429.67;88354;282;22609;-70
2023/10/10 00:24:37;;;;;;;2.80;1.40;;;;;;;4.69;84.99;100428.61;88347;282;135785;-70
2023/10/10 00:26:42;;;;;;;3.10;1.40;;;;;;;4.67;85.16;100430.20;88597;282;22553;-72
2023/10/10 00:28:45;;;;;;;;;;;;;;;4.65;85.44;100427.73;88294;282;135778;-71
2023/10/10 00:30:49;;;;;;;3.50;2.20;;;;;;;4.62;85.57;100426.45;88359;276;22546;-71
2023/10/10 00:32:51;;;;;;;3.20;1.30;;;;;;;4.63;85.60;100428.11;88477;283;137577;-69
2023/10/10 00:34:55;;;;;;;2.40;1.00;;;;;;;4.69;85.34;100432.34;88494;284;22534;-72
2023/10/10 00:37:04;;;;;;;1.90;1.50;;;;;;;4.75;85.08;100433.86;88424;280;136427;-71
2023/10/10 00:41:15;;;;;;;1.90;1.10;;;;;;;4.78;84.80;100434.29;88377;282;135980;-73
2023/10/10 00:43:23;;;;;;;1.50;1.40;;;;;;;4.74;84.75;100434.11;88381;282;22537;-71
2023/10/10 00:45:33;;;;;;;3.60;2.30;;;;;;;4.70;84.74;100433.08;88338;274;137155;-71
2023/10/10 00:47:41;;;;;;;3.00;1.40;;;;;;;4.67;84.85;100434.77;88323;275;22634;-73
2023/10/10 00:49:45;;;;;;;3.10;1.80;;;;;;;4.64;84.79;100432.55;88365;274;135845;-71
2023/10/10 00:51:47;;;;;;;2.70;1.70;;;;;;;4.63;84.88;100429.90;88496;275;22574;-71
2023/10/10 00:54:09;;;;;;;3.30;1.50;;;;;;;4.62;84.98;100436.19;88485;282;137245;-71
2023/10/10 00:56:13;;;;;;;2.80;1.50;;;;;;;4.64;84.96;100434.89;88332;283;137974;-72
2023/10/10 00:58:22;;;;;;;2.10;1.50;;;;;;;4.66;84.78;100432.37;88456;284;24427;-72
2023/10/10 01:00:29;;;;;;;2.40;1.40;;;;;;;4.65;84.95;100432.63;88263;282;136323;-71
2023/10/10 01:02:32;;;;;;;3.30;1.60;;;;;;;4.59;85.04;100429.20;88544;278;25083;-71
2023/10/10 01:04:48;;;;;;;3.60;1.80;;;;;;;4.51;85.36;100431.17;88456;279;135802;-68
2023/10/10 01:06:51;;;;;;;3.70;1.40;;;;;;;4.42;85.56;100432.02;88406;275;24093;-72
2023/10/10 01:09:15;;;;;;;5.70;1.60;;;;;;;4.36;85.76;100431.98;88306;284;135811;-73
2023/10/10 01:11:19;;;;;;;4.60;2.50;;;;;;;4.32;85.99;100433.24;88524;283;25355;-72
2023/10/10 01:13:21;;;;;;;2.70;1.40;;;;;;;4.29;86.33;100437.98;88347;275;135944;-72
2023/10/10 01:15:33;;;;;;;4.10;1.90;;;;;;;4.28;86.48;100440.61;88276;281;22551;-70
2023/10/10 01:17:37;;;;;;;2.10;1.40;;;;;;;4.26;86.53;100442.34;88236;276;136784;-73
2023/10/10 01:19:41;;;;;;;2.80;1.40;;;;;;;4.26;86.63;100440.82;88383;276;25106;-72
2023/10/10 01:21:50;;;;;;;3.00;1.50;;;;;;;4.27;86.77;100442.81;88264;276;136681;-71
2023/10/10 01:23:52;;;;;;;2.20;1.60;;;;;;;4.28;86.75;100444.65;88460;280;22561;-73
2023/10/10 01:26:05;;;;;;;2.80;2.20;;;;;;;4.24;87.14;100444.63;88372;276;135858;-70
2023/10/10 01:28:23;;;;;;;4.30;1.40;;;;;;;4.20;87.52;100450.84;88292;280;136320;-71
2023/10/10 01:32:50;;;;;;;2.10;1.50;;;;;;;4.17;88.14;100452.39;88225;276;135550;-70
2023/10/10 01:34:52;;;;;;;3.10;1.80;;;;;;;4.13;88.25;100455.96;88484;274;22532;-72
2023/10/10 01:36:57;;;;;;;5.50;1.50;;;;;;;4.08;88.44;100458.45;88411;277;137096;-70
2023/10/10 01:39:07;;;;;;;3.00;1.40;;;;;;;4.11;88.67;100459.59;88470;279;23458;-71
2023/10/10 01:41:22;;;;;;;3.40;1.50;;;;;;;4.16;88.36;100456.38;88415;281;136705;-72
2023/10/10 01:43:25;;;;;;;2.30;1.50;;;;;;;4.19;88.25;100457.27;88607;274;24209;-71
2023/10/10 01:45:27;;;;;;;3.40;1.10;;;;;;;4.18;88.47;100457.86;88397;282;135875;-68
2023/10/10 01:47:34;;;;;;;3.60;2.20;;;;;;;4.15;88.45;100452.93;88670;281;22564;-71
2023/10/10 01:49:37;;;;;;;2.60;1.50;;;;;;;4.13;88.58;100453.84;88368;276;135996;-76
2023/10/10 01:51:43;;;;;;;1.90;1.50;;;;;;;4.10;88.92;100454.55;88421;280;22637;-68
2023/10/10 01:53:48;;;;;;;3.60;1.80;;;;;;;4.08;89.01;100455.31;88490;274;137277;-74
2023/10/10 01:55:50;;;;;;;3.40;1.80;;;;;;;4.07;89.00;100453.15;88417;275;23663;-70
2023/10/10 01:57:57;;;;;;;3.50;1.30;;;;;;;4.09;88.67;100451.15;88248;275;136319;-73
2023/10/10 02:00:11;;;;;;;1.90;1.60;;;;;;;4.12;88.44;100450.42;88333;275;25219;-73
2023/10/10 02:02:16;;;;;;;3.00;1.40;;;;;;;4.10;88.33;100445.62;88587;277;22524;-71
2023/10/10 02:04:27;;;;;;;3.10;1.90;;;;;;;4.12;88.42;100445.95;88677;278;137515;-71
2023/10/10 02:06:29;;;;;;;2.20;1.80;;;;;;;4.09;88.56;100447.42;88477;275;23364;-72
2023/10/10 02:08:31;;;;;;;4.90;1.60;;;;;;;4.04;88.58;100450.21;88492;274;135691;-72
2023/10/10 02:10:33;;;;;;;2.80;2.00;;;;;;;3.97;88.79;100453.17;88322;275;25178;-70
2023/10/10 02:12:34;;;;;;;2.40;1.60;;;;;;;3.92;89.20;100452.77;88417;274;136007;-71
2023/10/10 02:14:36;;;;;;;2.20;1.70;;;;;;;3.85;89.28;100450.73;88483;282;22548;-72
2023/10/10 02:16:40;;;;;;;2.50;1.70;;;;;;;3.80;89.64;100447.55;88437;275;135141;-69
2023/10/10 02:18:51;;;;;;;2.90;1.70;;;;;;;3.74;90.03;100449.48;88625;282;25175;-73
2023/10/10 02:20:55;;;;;;;3.70;2.10;;;;;;;3.75;90.14;100442.95;88413;279;137679;-72
2023/10/10 02:23:08;;;;;;;5.50;2.30;;;;;;;3.76;90.23;100439.94;88501;278;24533;-70
2023/10/10 02:27:32;;;;;;;4.20;1.70;;;;;;;3.81;90.25;100443.88;88443;275;22561;-67
2023/10/10 02:29:35;;;;;;;4.20;2.00;;;;;;;3.83;90.42;100445.97;88505;277;137158;-70
2023/10/10 02:31:40;;;;;;;4.70;1.30;;;;;;;3.85;90.50;100446.93;88601;281;25088;-69
2023/10/10 02:33:48;;;;;;;5.20;1.50;;;;;;;3.82;90.66;100445.90;88386;276;136157;-71
2023/10/10 02:35:58;;;;;;;2.50;1.90;;;;;;;3.81;90.69;100439.86;88535;273;25083;-69
2023/10/10 02:38:05;;;;;;;4.70;2.90;;;;;;;3.80;90.69;100441.39;88582;273;136523;-73
2023/10/10 02:40:15;;;;;;;3.20;2.30;;;;;;;3.80;90.81;100436.29;88419;277;136538;-73
2023/10/10 02:42:19;;;;;;;5.50;2.20;;;;;;;3.79;90.70;100434.09;88696;282;22556;-72
2023/10/10 02:44:57;;;;;;;3.10;1.50;;;;;;;3.75;90.58;100435.13;88451;282;135858;-72
2023/10/10 02:46:48;;;;;;;3.90;1.70;;;;;;;3.71;90.77;100433.74;88443;275;25178;-73
2023/10/10 02:48:55;;;;;;;2.20;1.50;;;;;;;3.69;90.62;100433.23;88364;274;136647;-70
2023/10/10 02:51:02;;;;;;;7.10;2.30;;;;;;;3.69;90.32;100433.06;88401;276;25096;-70
2023/10/10 02:53:08;;;;;;;3.90;1.60;;;;;;;3.66;90.43;100435.08;88289;280;136485;-72
2023/10/10 02:55:14;;;;;;;4.60;2.60;;;;;;;3.61;90.73;100434.31;88467;282;24597;-71
2023/10/10 02:59:38;;;;;;;3.40;2.30;;;;;;;3.54;91.23;100429.91;89492;279;22658;-71
2023/10/10 03:02:08;;;;;;;3.30;2.20;;;;;;;3.53;91.45;100432.30;89138;276;137827;-71
2023/10/10 03:04:16;;;;;;;3.80;2.70;;;;;;;3.51;91.72;100433.30;88941;282;138335;-73
2023/10/10 03:06:28;;;;;;;7.00;3.10;;;;;;;3.49;91.91;100430.67;88728;281;25102;-72
2023/10/10 03:10:39;;;;;;;8.10;2.40;;;;;;;3.46;92.21;100435.16;88603;280;22527;-69
2023/10/10 03:12:42;;;;;;;3.00;2.60;;;;;;;3.45;92.47;100432.26;88413;275;136516;-70
2023/10/10 03:14:44;;;;;;;4.30;1.70;;;;;;;3.44;92.62;100430.09;88611;278;24055;-69
2023/10/10 03:16:59;;;;;;;4.40;2.00;;;;;;;3.42;93.33;100432.59;88426;273;137544;-71
2023/10/10 03:25:28;;;;;;;6.10;3.00;;;;;;;3.40;94.38;100438.16;88369;280;137947;-71
2023/10/10 03:27:50;;;;;;;4.30;3.00;;;;;;;3.40;94.53;100438.52;88470;282;24052;-72
2023/10/10 03:30:15;;;;;;;7.00;3.90;;;;;;;3.45;94.46;100441.05;88466;273;136641;-72
2023/10/10 03:34:35;;;;;;;3.80;2.80;;;;;;;3.46;94.26;100438.81;88572;274;26592;-72
2023/10/10 03:36:46;;;;;;;5.60;2.70;;;;;;;3.42;94.40;100442.77;88495;281;135891;-69
2023/10/10 05:24:09;;;;;;;3.90;2.30;;;;;;;11.07;52.05;100506.66;88448;281;136509;-67
2023/10/10 05:26:14;;;;;;;4.40;2.50;;;;;;;11.11;51.20;100501.32;88485;275;23088;-69
2023/10/10 05:28:18;;;;;;;2.40;1.90;;;;;;;10.88;50.99;100505.10;88398;279;136346;-67
2023/10/10 05:30:23;;;;;;;2.70;2.40;;;;;;;10.63;51.76;100511.60;88546;274;23106;-68
2023/10/10 05:32:30;;;;;;;;;;;;;;;10.54;51.99;100519.51;88345;275;137562;-68
2023/10/10 05:34:34;;;;;;;3.70;2.70;;;;;;;10.58;51.85;100522.88;88338;280;22537;-67
2023/10/10 05:36:36;;;;;;;6.70;2.70;;;;;;;10.75;51.74;100531.90;88380;275;136283;-66
2023/10/10 05:38:39;;;;;;;4.10;3.20;;;;;;;10.87;51.48;100534.95;87838;275;746927;-69
2023/10/10 05:40:43;;;;;;;8.10;3.10;;;;;;;10.96;51.41;100533.18;88340;275;138062;-67
2023/10/10 05:42:45;;;;;;;6.30;2.60;;;;;;;11.04;50.96;100531.04;88361;280;22540;-67
2023/10/10 05:44:49;;;;;;;4.20;2.80;;;;;;;11.24;50.27;100527.39;88290;279;137860;-67
2023/10/10 05:46:52;;;;;;;9.00;2.80;;;;;;;11.55;49.97;100525.87;88380;277;24057;-68
2023/10/10 05:48:56;;;;;;;5.80;2.80;;;;;;;11.80;48.27;100525.84;88445;273;136690;-68
2023/10/10 05:50:59;;;;;;;6.50;3.40;;;;;;;11.57;48.23;100524.75;88499;274;22530;-66
2023/10/10 05:53:01;;;;;;;4.20;3.30;;;;;;;11.32;49.08;100521.86;88361;278;136179;-66
2023/10/10 05:55:05;;;;;;;5.60;3.40;;;;;;;11.00;49.37;100524.45;88416;277;25638;-68
2023/10/10 05:57:10;;;;;;;4.10;3.00;;;;;;;10.63;50.31;100528.33;88459;281;136290;-67
2023/10/10 05:59:12;;;;;;;4.20;3.70;;;;;;;10.19;51.03;100533.09;88527;278;25650;-69
2023/10/10 06:01:15;;;;;;;10.10;8.40;;;;;;;9.66;52.15;100536.00;88387;280;136169;-63
2023/10/10 06:03:17;;;;;;;8.60;5.50;;;;;;;9.16;54.04;100539.61;88506;280;25194;-65
2023/10/10 06:05:20;;;;;;;6.10;4.40;;;;;;;8.78;55.40;100545.61;88424;273;136739;-66
2023/10/10 06:07:22;;;;;;;5.30;3.80;;;;;;;8.43;56.67;100546.83;88400;275;22532;-68
2023/10/10 06:09:27;;;;;;;10.50;5.00;;;;;;;8.06;57.99;100550.44;88439;281;135938;-66
2023/10/10 06:11:29;;;;;;;6.10;3.60;;;;;;;7.78;59.18;100552.82;88543;277;24146;-66
2023/10/10 06:13:33;;;;;;;5.80;4.00;;;;;;;7.58;60.51;100558.94;88377;282;135610;-67
2023/10/10 06:15:35;;;;;;;6.30;3.40;;;;;;;7.41;61.80;100561.68;88394;275;25213;-67
2023/10/10 06:17:39;;;;;;;5.00;3.50;;;;;;;7.23;62.80;100558.83;88447;281;137259;-66
2023/10/10 06:19:45;;;;;;;6.00;3.90;;;;;;;7.07;63.58;100564.47;89683;281;25271;-68
2023/10/10 06:21:47;;;;;;;6.70;4.10;;;;;;;6.93;65.06;100561.92;88468;275;135777;-67
2023/10/10 06:23:49;;;;;;;4.70;3.40;;;;;;;6.81;65.82;100564.15;88484;274;25219;-69
2023/10/10 06:25:58;;;;;;;4.30;3.60;;;;;;;6.69;66.15;100567.83;88316;277;137398;-66
2023/10/10 06:28:00;;;;;;;7.70;4.70;;;;;;;6.60;67.96;100573.17;88505;275;22542;-67
2023/10/10 06:30:04;;;;;;;6.70;4.20;;;;;;;6.51;67.98;100569.55;88427;279;22540;-69
2023/10/10 06:32:15;;;;;;;7.20;3.60;;;;;;;6.35;68.75;100571.96;88465;276;135930;-65
2023/10/10 06:34:22;;;;;;;6.80;4.50;;;;;;;6.24;69.91;100581.23;88389;275;22534;-70
2023/10/10 06:38:27;;;;;;;8.60;4.60;;;;;;;6.22;71.80;100576.98;88447;282;22609;-69
2023/10/10 06:40:29;;;;;;;5.80;3.50;;;;;;;6.31;71.77;100581.63;88361;279;135815;-67
2023/10/10 06:42:31;;;;;;;5.90;4.20;;;;;;;6.39;71.48;100578.48;88430;275;23979;-69
2023/10/10 06:44:34;;;;;;;6.10;4.00;;;;;;;6.46;71.12;100583.59;88324;279;135793;-69
2023/10/10 06:46:37;;;;;;;5.90;3.20;;;;;;;6.55;71.23;100580.80;88503;276;22540;-71
2023/10/10 06:48:40;;;;;;;6.30;3.30;;;;;;;6.61;71.13;100586.52;88416;274;135971;-70
2023/10/10 06:50:43;;;;;;;9.00;4.30;;;;;;;6.62;71.37;100585.52;88464;280;22557;-68
2023/10/10 06:52:52;;;;;;;4.90;3.60;;;;;;;6.63;71.09;100583.66;88506;274;135976;-68
2023/10/10 06:54:54;;;;;;;5.90;3.40;;;;;;;6.66;71.06;100578.94;88504;279;25124;-70
2023/10/10 06:59:03;;;;;;;6.60;3.50;;;;;;;6.73;71.15;100577.86;88312;282;25087;-70
2023/10/10 07:01:05;;;;;;;5.00;3.10;;;;;;;6.75;71.24;100579.63;88152;283;136891;-68
2023/10/10 07:03:07;;;;;;;6.10;3.50;;;;;;;6.72;71.45;100572.82;88443;274;22530;-68
2023/10/10 07:05:15;;;;;;;6.20;3.80;;;;;;;6.83;71.45;100581.66;88500;275;136556;-69
2023/10/10 07:07:20;;;;;;;4.50;2.70;;;;;;;6.88;71.44;100577.96;88557;282;24579;-68
2023/10/10 07:09:29;;;;;;;5.50;3.90;;;;;;;6.95;71.31;100572.06;88467;277;135854;-68
2023/10/10 07:11:31;;;;;;;6.70;3.30;;;;;;;6.99;71.05;100570.05;88661;281;22818;-67
2023/10/10 07:13:35;;;;;;;6.90;3.20;;;;;;;6.98;70.70;100569.34;88414;277;135891;-69
2023/10/10 07:15:39;;;;;;;6.40;3.40;;;;;;;6.92;70.87;100567.13;88765;273;22599;-68
2023/10/10 07:17:42;;;;;;;5.00;4.20;;;;;;;6.87;71.70;100572.16;88479;274;136131;-69
2023/10/10 07:22:03;;;;;;;5.70;3.50;;;;;;;6.88;72.02;100571.84;89056;282;136816;-66
2023/10/10 07:24:13;;;;;;;6.30;3.70;;;;;;;6.92;71.95;100565.84;89035;274;136003;-68
2023/10/10 07:26:19;;;;;;;6.70;3.20;;;;;;;6.97;71.84;100568.83;89080;278;25192;-70
2023/10/10 07:28:24;;;;;;;6.50;3.50;;;;;;;7.01;71.63;100567.42;88678;279;135884;-71
2023/10/10 07:30:42;;;;;;;9.00;4.10;;;;;;;7.02;71.88;100566.05;88532;277;22532;-71
2023/10/10 07:32:50;;;;;;;5.60;3.20;;;;;;;7.05;71.53;100561.10;88461;282;136051;-68
2023/10/10 07:34:54;;;;;;;7.30;3.50;;;;;;;7.08;71.92;100562.11;88455;281;25258;-70
2023/10/10 07:36:58;;;;;;;8.80;3.70;;;;;;;7.12;71.83;100562.70;88445;275;135984;-67
2023/10/10 07:41:24;;;;;;;5.50;4.60;;;;;;;7.29;71.66;100561.13;88393;274;137528;-70
2023/10/10 07:43:27;;;;;;;5.60;3.90;;;;;;;7.36;71.34;100559.73;88395;283;22549;-65
2023/10/10 07:50:08;;;;;;;15.80;3.70;;;;;;;7.48;71.09;100564.06;88563;279;135396;-70
2023/10/10 07:52:16;;;;;;;7.80;4.10;;;;;;;7.56;71.09;100564.34;88548;274;136545;-69
2023/10/10 07:54:31;;;;;;;3.80;2.90;;;;;;;7.63;70.88;100564.78;88672;280;22740;-66
2023/10/10 07:56:33;;;;;;;6.70;3.10;;;;;;;7.65;71.03;100554.70;88638;282;135677;-72
2023/10/10 07:58:49;;;;;;;6.20;3.40;;;;;;;7.74;71.14;100563.94;88677;275;22547;-70
2023/10/10 08:01:08;;;;;;;4.60;3.40;;;;;;;7.84;71.04;100564.88;88502;279;135831;-72
2023/10/10 08:03:19;;;;;;;3.90;2.60;;;;;;;7.94;70.19;100566.63;88605;275;25172;-71
2023/10/10 08:05:21;;;;;;;4.60;3.10;;;;;;;7.99;70.00;100572.84;88306;279;135845;-68
2023/10/10 08:07:23;;;;;;;3.70;3.20;;;;;;;8.03;69.84;100572.41;88361;275;24055;-71
2023/10/10 08:09:29;;;;;;;6.70;3.90;;;;;;;8.05;69.57;100576.20;88584;273;136286;-73
2023/10/10 08:11:37;;;;;;;5.10;3.40;;;;;;;8.09;69.69;100573.30;88727;273;24011;-69
2023/10/10 08:13:42;;;;;;;6.60;3.90;;;;;;;8.14;69.44;100574.16;88424;273;136111;-69
2023/10/10 08:16:03;;;;;;;6.00;3.80;;;;;;;8.19;69.32;100578.05;88660;278;23747;-72
2023/10/10 08:18:05;;;;;;;4.30;2.90;;;;;;;8.26;68.86;100581.77;88608;273;23749;-71
2023/10/10 08:20:31;;;;;;;6.70;2.90;;;;;;;8.28;68.72;100583.63;88398;273;135955;-71
2023/10/10 08:22:30;;;;;;;5.70;3.10;;;;;;;8.30;68.66;100586.64;88584;274;25172;-69
2023/10/10 08:24:33;;;;;;;7.90;3.90;;;;;;;8.31;68.53;100588.43;88316;275;136605;-70
2023/10/10 08:26:41;;;;;;;4.70;3.40;;;;;;;8.32;68.81;100587.96;88482;278;22530;-71
2023/10/10 08:28:47;;;;;;;4.20;3.30;;;;;;;8.35;69.16;100589.92;88713;274;136137;-67
2023/10/10 08:30:50;;;;;;;3.90;3.20;;;;;;;8.42;68.84;100591.06;88531;278;25163;-64
2023/10/10 08:32:58;;;;;;;4.80;3.00;;;;;;;8.46;68.62;100584.79;88453;273;137240;-69
2023/10/10 08:35:00;;;;;;;6.50;4.00;;;;;;;8.45;68.63;100572.83;88613;273;22530;-72
2023/10/10 08:37:03;;;;;;;4.40;2.80;;;;;;;8.55;68.48;100577.41;88397;273;135953;-69
2023/10/10 08:39:24;;;;;;;6.20;3.30;;;;;;;8.58;68.25;100580.19;88357;275;25236;-70
2023/10/10 08:41:31;;;;;;;6.30;2.50;;;;;;;8.63;68.19;100575.96;88545;281;135533;-72
2023/10/10 08:43:35;;;;;;;3.30;2.30;;;;;;;8.65;67.69;100574.52;88465;279;22630;-69
2023/10/10 08:45:43;;;;;;;4.70;2.40;;;;;;;8.66;67.81;100578.97;88474;281;136156;-70
2023/10/10 08:47:46;;;;;;;5.40;2.20;;;;;;;8.66;67.85;100580.23;88600;274;25252;-70
2023/10/10 08:49:48;;;;;;;5.50;3.10;;;;;;;8.70;67.95;100580.70;88578;278;135448;-72
2023/10/10 08:51:53;;;;;;;6.60;2.50;;;;;;;8.75;67.84;100580.73;88572;277;24036;-71
2023/10/10 08:53:55;;;;;;;9.10;2.80;;;;;;;8.80;66.99;100579.58;88590;273;135989;-72
2023/10/10 08:55:57;;;;;;;2.80;2.10;;;;;;;8.83;67.32;100583.18;88764;278;25080;-71
2023/10/10 08:57:59;;;;;;;3.00;1.70;;;;;;;8.89;66.73;100585.89;88555;277;135569;-70
2023/10/10 09:00:06;;;;;;;7.80;2.00;;;;;;;8.93;66.55;100589.59;88514;278;23701;-70
2023/10/10 09:02:09;;;;;;;2.10;2.00;;;;;;;9.02;66.38;100598.77;88620;273;22609;-70
2023/10/10 09:04:18;;;;;;;2.50;2.20;;;;;;;9.12;66.15;100599.54;88537;277;138903;-68
2023/10/10 09:06:21;;;;;;;2.40;1.70;;;;;;;9.23;65.40;100603.88;88429;278;25332;-73
2023/10/10 09:08:26;;;;;;;3.20;1.40;;;;;;;9.30;63.24;100602.11;88409;278;136234;-71
2023/10/10 09:10:29;;;;;;;4.50;1.40;;;;;;;9.33;62.82;100596.55;88504;281;22545;-68
2023/10/10 09:12:52;;;;;;;2.50;1.30;;;;;;;9.35;62.49;100596.80;88420;274;138958;-71
2023/10/10 09:14:55;;;;;;;2.50;1.00;;;;;;;9.42;62.50;100596.24;88573;274;22553;-70
2023/10/10 09:16:56;;;;;;;3.00;1.30;;;;;;;9.46;62.34;100584.61;88221;275;136330;-68
2023/10/10 09:19:11;;;;;;;4.50;1.40;;;;;;;9.49;62.28;100589.55;88326;274;22551;-69
2023/10/10 09:21:18;;;;;;;2.10;1.00;;;;;;;9.56;62.19;100584.36;88243;281;136133;-71
2023/10/10 09:23:22;;;;;;;4.50;1.20;;;;;;;9.63;61.42;100584.54;88506;278;26189;-69
2023/10/10 09:25:41;;;;;;;0.80;0.70;;;;;;;9.69;61.12;100581.96;88357;273;137180;-72
2023/10/10 09:28:04;;;;;;;1.20;0.60;;;;;;;9.73;60.69;100581.45;88496;273;25216;-69
2023/10/10 09:30:09;;;;;;;2.70;0.30;;;;;;;9.78;60.36;100580.62;88429;279;24632;-68
2023/10/10 09:32:15;;;;;;;1.80;0.30;;;;;;;9.82;60.10;100583.89;88445;275;136488;-70
2023/10/10 09:34:22;;;;;;;3.60;0.50;;;;;;;9.79;59.71;100570.87;88527;279;22537;-70
2023/10/10 09:36:28;;;;;;;2.70;0.10;;;;;;;9.87;59.21;100581.88;88457;274;136201;-70
2023/10/10 09:41:14;;;;;;;1.00;0.40;;;;;;;9.81;57.91;100586.95;86943;304;602541;-72
2023/10/10 09:43:25;;;;;;;1.90;0.20;;;;;;;9.79;57.77;100589.33;87935;286;22542;-69
2023/10/10 09:47:56;;;;;;;0.80;0.20;;;;;;;9.78;57.53;100585.88;87922;285;22743;-69
2023/10/10 09:54:25;;;;;;;1.20;0.20;;;;;;;9.81;57.72;100581.09;87429;288;642493;-70
2023/10/10 09:56:29;;;;;;;1.90;0.20;;;;;;;9.87;57.38;100583.41;87832;283;136807;-70
2023/10/10 09:58:41;;;;;;;0.40;0.30;;;;;;;9.94;57.21;100582.67;88088;290;25242;-70
2023/10/10 10:02:50;;;;;;;0.50;0.20;;;;;;;9.94;56.62;100572.42;88012;285;24100;-69
2023/10/10 10:04:53;;;;;;;0.20;0.10;;;;;;;10.01;55.54;100582.19;88059;281;135964;-70
2023/10/10 10:07:18;;;;;;;0.20;0.10;;;;;;;10.03;55.05;100585.39;88290;287;24056;-70
2023/10/10 10:09:45;;;;;;;0.60;0.20;;;;;;;9.97;54.05;100563.83;88150;285;135796;-69
2023/10/10 10:11:51;;;;;;;2.10;0.10;;;;;;;10.07;53.81;100583.14;88195;285;25086;-70
2023/10/10 10:14:14;;;;;;;0.90;0.10;;;;;;;10.10;53.53;100578.65;88129;283;135628;-70
2023/10/10 10:16:47;;;;;;;1.30;0.10;;;;;;;10.09;52.96;100577.11;88019;279;136485;-70
2023/10/10 10:18:52;;;;;;;0.40;0.10;;;;;;;10.05;52.40;100582.92;88210;280;22553;-70
2023/10/10 10:23:27;;;;;;;1.80;0.20;;;;;;;9.98;53.03;100582.86;88351;285;24219;-70
2023/10/10 10:25:31;;;;;;;0.90;0.10;;;;;;;9.98;53.39;100586.39;88279;278;136261;-72
2023/10/10 10:27:42;;;;;;;0.30;0.10;;;;;;;10.03;53.72;100580.66;88350;279;25118;-68
2023/10/10 10:29:55;;;;;;;0.20;0.10;;;;;;;10.08;52.83;100579.96;88208;277;135910;-71
2023/10/10 10:32:00;;;;;;;0.40;0.30;;;;;;;10.11;52.46;100582.47;88406;285;25170;-71
2023/10/10 10:34:16;;;;;;;0.90;0.20;;;;;;;10.11;51.67;100578.46;88304;277;136025;-69
2023/10/10 10:36:19;;;;;;;0.50;0.10;;;;;;;10.11;51.06;100585.96;88535;277;137560;-67
2023/10/10 10:38:23;;;;;;;0.50;0.20;;;;;;;10.11;51.44;100590.92;88673;279;22537;-67
2023/10/10 10:42:51;;;;;;;6.60;0.20;;;;;;;10.18;50.76;100589.80;88334;277;25331;-72
2023/10/10 10:44:55;;;;;;;0.30;0.10;;;;;;;10.17;50.18;100591.31;88252;285;135983;-71
2023/10/10 10:46:57;;;;;;;3.90;0.20;;;;;;;10.16;50.00;100598.38;88324;277;24908;-69
2023/10/10 10:49:05;;;;;;;0.50;0.10;;;;;;;10.16;49.96;100594.45;88111;277;140067;-69
2023/10/10 10:51:22;;;;;;;2.00;0.20;;;;;;;10.22;50.09;100586.96;88462;277;25422;-69
2023/10/10 10:53:35;;;;;;;0.40;0.10;;;;;;;10.30;49.95;100588.39;88254;282;136342;-72
2023/10/10 10:55:40;;;;;;;1.60;0.30;;;;;;;10.39;49.79;100585.08;90454;282;22534;-72
2023/10/10 10:57:42;;;;;;;1.10;0.70;;;;;;;10.42;49.94;100573.48;88347;276;136399;-71
2023/10/10 10:59:55;;;;;;;1.70;1.20;;;;;;;10.61;49.49;100586.33;88290;276;22599;-72
2023/10/10 11:01:57;;;;;;;2.00;0.30;;;;;;;10.70;48.33;100579.60;88173;277;135682;-70
2023/10/10 11:04:05;;;;;;;0.30;0.20;;;;;;;10.74;47.98;100588.45;88579;276;24052;-69
2023/10/10 11:06:09;;;;;;;0.40;0.20;;;;;;;10.73;48.21;100586.79;88486;282;22522;-71
2023/10/10 11:08:13;;;;;;;1.70;0.20;;;;;;;10.82;48.54;100593.02;88488;279;137582;-70
2023/10/10 11:10:35;;;;;;;0.90;0.20;;;;;;;10.90;47.91;100590.89;88346;284;25144;-72
2023/10/10 11:12:37;;;;;;;0.50;0.10;;;;;;;10.98;46.30;100589.14;88201;284;136388;-70
2023/10/10 11:14:46;;;;;;;1.30;0.20;;;;;;;10.97;45.70;100589.41;88309;276;22551;-70
2023/10/10 11:16:56;;;;;;;0.50;0.10;;;;;;;10.93;45.81;100596.05;88246;280;136400;-73
2023/10/10 11:19:03;;;;;;;0.20;0.10;;;;;;;10.88;45.86;100598.11;88350;276;22543;-73
2023/10/10 11:21:11;;;;;;;1.40;0.20;;;;;;;10.86;46.28;100600.23;88204;277;135941;-70
2023/10/10 11:23:14;;;;;;;0.10;0.10;;;;;;;10.87;46.46;100603.73;89093;280;24052;-72
2023/10/10 11:25:26;;;;;;;0.40;0.20;;;;;;;10.88;46.74;100605.20;89134;277;135771;-72
2023/10/10 11:27:29;;;;;;;0.70;0.40;;;;;;;10.87;46.83;100609.19;88803;276;24170;-73
2023/10/10 11:29:47;;;;;;;0.50;0.10;;;;;;;10.84;46.53;100611.39;89226;278;135810;-68
2023/10/10 11:32:06;;;;;;;1.00;0.10;;;;;;;10.79;46.29;100616.11;89651;276;23694;-72
2023/10/10 11:34:11;;;;;;;1.50;0.10;;;;;;;10.72;46.44;100619.74;89763;279;22654;-70
2023/10/10 11:36:29;;;;;;;0.30;0.10;;;;;;;10.62;46.59;100620.67;88684;282;136382;-72
2023/10/10 11:38:35;;;;;;;0.30;0.00;;;;;;;10.51;46.15;100625.04;88492;280;22632;-71
2023/10/10 11:40:37;;;;;;;0.10;0.00;;;;;;;10.40;46.40;100629.34;88326;276;135902;-70
2023/10/10 11:42:47;;;;;;;0.30;0.10;;;;;;;10.35;46.82;100627.48;88340;284;22607;-69
2023/10/10 11:44:53;;;;;;;2.30;2.10;;;;;;;10.33;47.18;100632.84;88180;282;136399;-71
2023/10/10 11:47:04;;;;;;;1.00;0.80;;;;;;;10.22;47.14;100616.84;88614;282;24069;-72
2023/10/10 11:49:15;;;;;;;0.90;0.20;;;;;;;10.27;47.37;100631.19;88339;280;136783;-73
2023/10/10 11:51:32;;;;;;;0.20;0.10;;;;;;;10.27;47.97;100627.11;88426;280;25175;-71
2023/10/10 11:53:36;;;;;;;0.70;0.20;;;;;;;10.29;47.67;100627.33;88279;280;135951;-70
2023/10/10 11:55:41;;;;;;;1.30;0.10;;;;;;;10.31;47.90;100630.52;88398;280;22537;-72
2023/10/10 11:57:44;;;;;;;0.20;0.10;;;;;;;10.37;47.56;100624.04;88225;276;137192;-72
2023/10/10 11:59:46;;;;;;;1.30;0.00;;;;;;;10.42;47.23;100625.60;88302;276;24017;-71
2023/10/10 12:02:07;;;;;;;0.30;0.10;;;;;;;10.42;47.20;100622.15;88209;277;136000;-71
2023/10/10 12:04:20;;;;;;;3.20;0.10;;;;;;;10.40;47.26;100621.67;88212;283;136138;-71
2023/10/10 12:06:26;;;;;;;0.70;0.10;;;;;;;10.38;47.29;100628.02;88294;283;22541;-70
2023/10/10 12:08:29;;;;;;;0.50;0.10;;;;;;;10.36;47.52;100628.44;88288;276;135785;-71
2023/10/10 12:10:47;;;;;;;1.30;1.20;;;;;;;10.33;47.30;100633.86;88381;276;25172;-69
2023/10/10 12:12:52;;;;;;;0.20;0.10;;;;;;;10.28;47.75;100635.32;88221;280;136007;-72
2023/10/10 12:14:54;;;;;;;;;;;;;;;10.23;48.06;100631.95;88315;276;25249;-70
2023/10/10 12:17:05;;;;;;;2.10;0.10;;;;;;;10.21;48.46;100637.76;88251;280;122254;-70
2023/10/10 12:19:07;;;;;;;0.30;0.10;;;;;;;10.20;48.46;100638.56;88316;281;25388;-73
2023/10/10 12:21:14;;;;;;;0.50;0.10;;;;;;;10.21;48.86;100633.70;88283;283;136245;-72
2023/10/10 12:23:16;;;;;;;0.70;0.10;;;;;;;10.22;48.74;100639.92;88625;280;22540;-72
2023/10/10 12:25:18;;;;;;;0.10;0.10;;;;;;;10.25;48.82;100639.10;88223;276;137512;-71
2023/10/10 12:27:20;;;;;;;1.30;0.20;;;;;;;10.25;48.54;100641.13;88385;276;22539;-73
2023/10/10 12:29:22;;;;;;;0.90;0.10;;;;;;;10.27;48.77;100644.80;88423;283;136165;-71
2023/10/10 12:31:27;;;;;;;0.30;0.10;;;;;;;10.28;48.78;100645.80;88403;276;25226;-71
2023/10/10 12:33:30;;;;;;;0.70;0.20;;;;;;;10.28;48.88;100645.99;88315;276;136223;-72
2023/10/10 12:35:33;;;;;;;0.20;0.10;;;;;;;10.29;49.17;100646.42;88639;276;22534;-71